createdAt,value
2018-02-02T00:00:51.966Z,0.00
2018-02-02T00:01:52.006Z,0.00
2018-02-02T00:02:51.899Z,0.00
2018-02-02T00:03:51.892Z,0.00
2018-02-02T00:04:51.883Z,0.00
2018-02-02T00:05:51.877Z,0.00
2018-02-02T00:06:51.875Z,0.00
2018-02-02T00:07:51.862Z,0.00
2018-02-02T00:08:51.852Z,0.00
2018-02-02T00:09:51.843Z,0.00
2018-02-02T00:10:51.837Z,0.00
2018-02-02T00:11:51.828Z,0.00
2018-02-02T00:12:51.821Z,0.00
2018-02-02T00:13:51.813Z,0.00
2018-02-02T00:14:51.804Z,0.00
2018-02-02T00:15:51.795Z,0.00
2018-02-02T00:16:51.792Z,0.00
2018-02-02T00:17:51.781Z,0.00
2018-02-02T00:18:51.772Z,0.00
2018-02-02T00:19:51.762Z,0.00
2018-02-02T00:20:51.760Z,0.00
2018-02-02T00:21:51.749Z,0.00
2018-02-02T00:22:51.739Z,0.00
2018-02-02T00:23:51.732Z,0.00
2018-02-02T00:24:51.725Z,0.00
2018-02-02T00:26:00.477Z,0.00
2018-02-02T00:27:54.262Z,0.00
2018-02-02T00:30:15.265Z,0.00
2018-02-02T00:32:28.636Z,0.00
2018-02-02T00:33:37.016Z,0.00
2018-02-02T00:35:22.076Z,0.00
2018-02-02T00:36:21.692Z,0.00
2018-02-02T00:38:51.854Z,0.00
2018-02-02T00:39:51.387Z,0.00
2018-02-02T00:41:37.025Z,0.00
2018-02-02T00:42:45.614Z,0.00
2018-02-02T00:44:39.507Z,0.00
2018-02-02T00:45:30.575Z,0.00
2018-02-02T00:46:30.313Z,0.00
2018-02-02T00:47:30.296Z,0.00
2018-02-02T00:48:30.229Z,0.00
2018-02-02T00:49:30.218Z,0.00
2018-02-02T00:50:30.206Z,0.00
2018-02-02T00:51:30.199Z,0.00
2018-02-02T00:52:30.189Z,0.00
2018-02-02T00:53:30.181Z,0.00
2018-02-02T00:54:30.172Z,0.00
2018-02-02T00:55:38.898Z,0.00
2018-02-02T00:57:23.701Z,0.00
2018-02-02T00:58:23.578Z,0.00
2018-02-02T00:59:23.559Z,0.00
2018-02-02T01:00:23.565Z,0.00
2018-02-02T01:01:23.504Z,0.00
2018-02-02T01:02:23.525Z,0.00
2018-02-02T01:03:23.489Z,0.00
2018-02-02T01:04:23.562Z,0.00
2018-02-02T01:05:23.474Z,0.00
2018-02-02T01:06:23.465Z,0.00
2018-02-02T01:07:23.458Z,0.00
2018-02-02T01:08:23.447Z,0.00
2018-02-02T01:09:23.442Z,0.00
2018-02-02T01:10:23.432Z,0.00
2018-02-02T01:11:23.435Z,0.00
2018-02-02T01:12:23.417Z,0.00
2018-02-02T01:13:23.426Z,0.00
2018-02-02T01:14:23.401Z,0.00
2018-02-02T01:15:23.392Z,0.00
2018-02-02T01:16:23.384Z,0.00
2018-02-02T01:17:23.380Z,0.00
2018-02-02T01:18:23.377Z,0.00
2018-02-02T01:19:23.358Z,0.00
2018-02-02T01:20:23.355Z,0.00
2018-02-02T01:21:23.343Z,0.00
2018-02-02T01:22:23.335Z,0.00
2018-02-02T01:23:23.335Z,0.00
2018-02-02T01:24:23.340Z,0.00
2018-02-02T01:25:23.314Z,0.00
2018-02-02T01:26:23.304Z,0.00
2018-02-02T01:27:23.298Z,0.00
2018-02-02T01:28:23.288Z,0.00
2018-02-02T01:29:23.281Z,0.00
2018-02-02T01:30:23.268Z,0.00
2018-02-02T01:31:23.262Z,0.00
2018-02-02T01:32:23.260Z,0.00
2018-02-02T01:33:23.247Z,0.00
2018-02-02T01:34:23.238Z,0.00
2018-02-02T01:35:23.234Z,0.00
2018-02-02T01:36:23.219Z,0.00
2018-02-02T01:37:23.212Z,0.00
2018-02-02T01:38:31.918Z,0.00
2018-02-02T01:40:25.839Z,0.00
2018-02-02T01:41:16.709Z,0.00
2018-02-02T01:42:16.653Z,0.00
2018-02-02T01:43:16.593Z,0.00
2018-02-02T01:44:16.558Z,0.00
2018-02-02T01:45:25.293Z,0.00
2018-02-02T01:47:10.260Z,0.00
2018-02-02T01:48:09.990Z,0.00
2018-02-02T01:49:09.993Z,0.00
2018-02-02T01:50:09.904Z,0.00
2018-02-02T01:51:09.898Z,0.00
2018-02-02T01:52:09.888Z,0.00
2018-02-02T01:53:09.911Z,0.00
2018-02-02T01:54:09.871Z,0.00
2018-02-02T01:55:09.869Z,0.00
2018-02-02T01:56:09.856Z,0.00
2018-02-02T01:57:09.847Z,0.00
2018-02-02T01:58:09.843Z,0.00
2018-02-02T01:59:09.832Z,0.00
2018-02-02T02:00:09.834Z,0.00
2018-02-02T02:01:09.866Z,0.00
2018-02-02T02:02:09.913Z,0.00
2018-02-02T02:03:09.797Z,0.00
2018-02-02T02:04:09.794Z,0.00
2018-02-02T02:05:09.905Z,0.00
2018-02-02T02:06:09.774Z,0.00
2018-02-02T02:07:09.768Z,0.00
2018-02-02T02:08:09.756Z,0.00
2018-02-02T02:09:09.774Z,0.00
2018-02-02T02:10:09.740Z,0.00
2018-02-02T02:11:09.754Z,0.00
2018-02-02T02:12:09.797Z,0.00
2018-02-02T02:13:09.718Z,0.00
2018-02-02T02:14:09.774Z,0.00
2018-02-02T02:15:09.701Z,0.00
2018-02-02T02:16:09.690Z,0.00
2018-02-02T02:17:09.682Z,0.00
2018-02-02T02:18:09.746Z,0.00
2018-02-02T02:19:09.666Z,0.00
2018-02-02T02:20:09.664Z,0.00
2018-02-02T02:21:09.646Z,0.00
2018-02-02T02:22:09.638Z,0.00
2018-02-02T02:23:09.636Z,0.00
2018-02-02T02:24:09.623Z,0.00
2018-02-02T02:25:09.619Z,0.00
2018-02-02T02:26:09.607Z,0.00
2018-02-02T02:27:09.601Z,0.00
2018-02-02T02:28:09.589Z,0.00
2018-02-02T02:29:09.578Z,0.00
2018-02-02T02:30:09.576Z,0.00
2018-02-02T02:31:09.565Z,0.00
2018-02-02T02:32:09.556Z,0.00
2018-02-02T02:33:09.546Z,0.00
2018-02-02T02:34:09.539Z,0.00
2018-02-02T02:35:09.530Z,0.00
2018-02-02T02:36:09.522Z,0.00
2018-02-02T02:37:09.512Z,0.00
2018-02-02T02:38:09.510Z,0.00
2018-02-02T02:39:09.495Z,0.00
2018-02-02T02:40:09.489Z,0.00
2018-02-02T02:41:09.477Z,0.00
2018-02-02T02:42:09.470Z,0.00
2018-02-02T02:43:09.461Z,0.00
2018-02-02T02:44:09.455Z,0.00
2018-02-02T02:45:09.445Z,0.00
2018-02-02T02:46:09.443Z,0.00
2018-02-02T02:47:09.429Z,0.00
2018-02-02T02:48:09.424Z,0.00
2018-02-02T02:49:09.412Z,0.00
2018-02-02T02:50:09.405Z,0.00
2018-02-02T02:51:09.395Z,0.00
2018-02-02T02:52:09.391Z,0.00
2018-02-02T02:53:09.384Z,0.00
2018-02-02T02:54:09.371Z,0.00
2018-02-02T02:55:09.361Z,0.00
2018-02-02T02:56:09.363Z,0.00
2018-02-02T02:57:09.347Z,0.00
2018-02-02T02:58:09.335Z,0.00
2018-02-02T02:59:09.328Z,0.00
2018-02-02T03:00:18.004Z,0.00
2018-02-02T03:02:11.959Z,0.00
2018-02-02T03:03:10.485Z,0.00
2018-02-02T03:23:12.171Z,0.00
2018-02-02T03:24:12.039Z,0.00
2018-02-02T03:25:12.022Z,0.00
2018-02-02T03:26:11.995Z,0.00
2018-02-02T03:27:11.935Z,0.00
2018-02-02T03:28:11.925Z,0.00
2018-02-02T03:29:11.912Z,0.00
2018-02-02T03:30:11.905Z,0.00
2018-02-02T03:31:11.890Z,0.00
2018-02-02T03:32:11.884Z,0.00
2018-02-02T03:33:11.869Z,0.00
2018-02-02T03:34:18.568Z,0.00
2018-02-02T03:35:11.850Z,0.00
2018-02-02T03:36:11.879Z,0.00
2018-02-02T03:37:11.828Z,0.00
2018-02-02T03:38:11.818Z,0.00
2018-02-02T03:39:11.810Z,0.00
2018-02-02T03:40:11.800Z,0.00
2018-02-02T03:41:11.793Z,0.00
2018-02-02T03:42:11.782Z,0.00
2018-02-02T03:43:11.771Z,0.00
2018-02-02T03:44:11.763Z,0.00
2018-02-02T03:45:11.753Z,0.00
2018-02-02T03:46:11.745Z,0.00
2018-02-02T03:47:11.734Z,0.00
2018-02-02T03:48:11.729Z,0.00
2018-02-02T03:49:11.717Z,0.00
2018-02-02T03:50:11.708Z,0.00
2018-02-02T03:51:11.697Z,0.00
2018-02-02T03:52:11.692Z,0.00
2018-02-02T03:53:11.680Z,0.00
2018-02-02T03:54:11.736Z,0.00
2018-02-02T03:55:11.664Z,0.00
2018-02-02T03:56:11.651Z,0.00
2018-02-02T03:57:11.647Z,0.00
2018-02-02T03:58:11.637Z,0.00
2018-02-02T03:59:11.624Z,0.00
2018-02-02T04:00:11.618Z,0.00
2018-02-02T04:01:11.611Z,0.00
2018-02-02T04:02:11.599Z,0.00
2018-02-02T04:03:11.594Z,0.00
2018-02-02T04:04:11.611Z,0.00
2018-02-02T04:05:11.572Z,0.00
2018-02-02T04:06:11.566Z,0.00
2018-02-02T04:07:11.557Z,0.00
2018-02-02T04:08:11.557Z,0.00
2018-02-02T04:09:11.574Z,0.00
2018-02-02T04:10:11.528Z,0.00
2018-02-02T04:11:11.517Z,0.00
2018-02-02T04:12:11.513Z,0.00
2018-02-02T04:13:11.503Z,0.00
2018-02-02T04:14:11.494Z,0.00
2018-02-02T04:15:11.505Z,0.00
2018-02-02T04:16:11.476Z,0.00
2018-02-02T04:17:11.470Z,0.00
2018-02-02T04:18:11.457Z,0.00
2018-02-02T04:19:11.451Z,0.00
2018-02-02T04:20:11.438Z,0.00
2018-02-02T04:21:11.434Z,0.00
2018-02-02T04:22:11.423Z,0.00
2018-02-02T04:23:11.462Z,0.00
2018-02-02T04:24:11.405Z,0.00
2018-02-02T04:25:11.396Z,0.00
2018-02-02T04:26:11.387Z,0.00
2018-02-02T04:27:11.380Z,0.00
2018-02-02T04:28:11.372Z,0.00
2018-02-02T04:29:11.363Z,0.00
2018-02-02T04:30:11.353Z,0.00
2018-02-02T04:31:11.346Z,0.00
2018-02-02T04:32:11.353Z,0.00
2018-02-02T04:33:11.439Z,0.00
2018-02-02T04:34:20.059Z,0.00
2018-02-02T04:36:05.706Z,0.00
2018-02-02T04:37:05.681Z,0.00
2018-02-02T04:38:05.674Z,0.00
2018-02-02T04:39:05.670Z,0.00
2018-02-02T04:40:05.665Z,0.00
2018-02-02T04:42:26.704Z,0.00
2018-02-02T04:43:35.292Z,0.00
2018-02-02T04:45:20.040Z,0.00
2018-02-02T04:46:20.064Z,0.00
2018-02-02T04:47:20.012Z,0.00
2018-02-02T04:48:20.074Z,0.00
2018-02-02T04:49:19.992Z,0.00
2018-02-02T04:50:19.993Z,0.00
2018-02-02T04:51:19.976Z,0.00
2018-02-02T04:52:19.968Z,0.00
2018-02-02T04:53:19.958Z,0.00
2018-02-02T04:54:19.952Z,0.00
2018-02-02T04:55:19.940Z,0.00
2018-02-02T04:56:19.936Z,0.00
2018-02-02T04:57:19.921Z,0.00
2018-02-02T04:58:19.910Z,0.00
2018-02-02T04:59:19.902Z,0.00
2018-02-02T05:00:19.896Z,0.00
2018-02-02T05:01:19.885Z,0.00
2018-02-02T05:02:19.879Z,0.00
2018-02-02T05:03:19.869Z,0.00
2018-02-02T05:04:19.861Z,0.00
2018-02-02T05:05:19.849Z,0.00
2018-02-02T05:06:19.845Z,0.00
2018-02-02T05:07:19.837Z,0.00
2018-02-02T05:08:19.831Z,0.00
2018-02-02T05:09:19.817Z,0.00
2018-02-02T05:10:19.805Z,0.00
2018-02-02T05:11:19.797Z,0.00
2018-02-02T05:12:19.787Z,0.00
2018-02-02T05:13:19.780Z,0.00
2018-02-02T05:14:19.782Z,0.00
2018-02-02T05:15:19.774Z,0.00
2018-02-02T05:16:19.765Z,0.00
2018-02-02T05:17:19.743Z,0.00
2018-02-02T05:18:19.738Z,0.00
2018-02-02T05:19:19.729Z,0.00
2018-02-02T05:20:19.726Z,0.00
2018-02-02T05:21:19.707Z,0.00
2018-02-02T05:22:19.700Z,0.00
2018-02-02T05:23:19.689Z,0.00
2018-02-02T05:24:19.680Z,0.00
2018-02-02T05:25:19.674Z,0.00
2018-02-02T05:26:19.670Z,0.00
2018-02-02T05:27:19.818Z,0.00
2018-02-02T05:28:19.647Z,0.00
2018-02-02T05:29:19.640Z,0.00
2018-02-02T05:30:19.628Z,0.00
2018-02-02T05:31:19.620Z,0.00
2018-02-02T05:32:26.966Z,0.00
2018-02-02T05:34:22.088Z,0.00
2018-02-02T05:36:34.003Z,0.00
2018-02-02T05:37:33.986Z,0.00
2018-02-02T05:38:43.676Z,0.00
2018-02-02T05:40:27.508Z,0.00
2018-02-02T05:41:27.390Z,0.00
2018-02-02T05:42:27.437Z,0.00
2018-02-02T05:43:37.417Z,0.00
2018-02-02T05:45:29.859Z,0.00
2018-02-02T05:46:29.487Z,0.00
2018-02-02T05:48:23.382Z,0.00
2018-02-02T05:49:22.934Z,0.00
2018-02-02T05:51:16.662Z,0.00
2018-02-02T05:53:37.768Z,0.00
2018-02-02T05:54:37.185Z,0.00
2018-02-02T05:56:22.169Z,0.00
2018-02-02T05:57:21.921Z,0.00
2018-02-02T05:58:21.959Z,0.00
2018-02-02T05:59:21.822Z,0.00
2018-02-02T06:00:30.887Z,0.00
2018-02-02T06:02:15.335Z,0.00
2018-02-02T06:03:15.239Z,0.00
2018-02-02T06:04:15.194Z,0.00
2018-02-02T06:05:15.244Z,0.00
2018-02-02T06:06:15.151Z,0.00
2018-02-02T06:07:15.144Z,0.00
2018-02-02T06:08:15.179Z,0.00
2018-02-02T06:09:15.122Z,0.00
2018-02-02T06:10:15.113Z,0.00
2018-02-02T06:11:15.148Z,0.00
2018-02-02T06:12:15.097Z,0.00
2018-02-02T06:13:15.087Z,0.00
2018-02-02T06:14:15.077Z,0.00
2018-02-02T06:15:15.100Z,0.00
2018-02-02T06:16:15.063Z,0.00
2018-02-02T06:17:15.050Z,0.00
2018-02-02T06:18:15.043Z,0.00
2018-02-02T06:19:15.035Z,0.00
2018-02-02T06:20:15.024Z,0.00
2018-02-02T06:21:24.135Z,0.00
2018-02-02T06:23:08.729Z,0.00
2018-02-02T06:24:09.287Z,0.00
2018-02-02T06:25:08.664Z,0.00
2018-02-02T06:26:08.505Z,0.00
2018-02-02T06:27:08.506Z,0.00
2018-02-02T06:28:08.407Z,0.00
2018-02-02T06:29:08.347Z,0.00
2018-02-02T06:30:08.332Z,0.00
2018-02-02T06:31:08.327Z,4.00
2018-02-02T06:32:08.318Z,4.00
2018-02-02T06:33:08.318Z,4.00
2018-02-02T06:34:08.297Z,4.00
2018-02-02T06:35:08.293Z,4.00
2018-02-02T06:36:08.280Z,4.00
2018-02-02T06:37:08.272Z,0.00
2018-02-02T06:38:08.266Z,0.00
2018-02-02T06:39:08.279Z,4.00
2018-02-02T06:40:08.245Z,4.00
2018-02-02T06:41:08.274Z,4.00
2018-02-02T06:42:08.225Z,4.00
2018-02-02T06:43:08.219Z,4.00
2018-02-02T06:44:08.210Z,4.00
2018-02-02T06:45:08.198Z,8.00
2018-02-02T06:46:08.190Z,4.00
2018-02-02T06:47:08.191Z,8.00
2018-02-02T06:48:08.176Z,8.00
2018-02-02T06:49:08.164Z,8.00
2018-02-02T06:50:08.157Z,12.00
2018-02-02T06:51:08.147Z,16.00
2018-02-02T06:52:08.140Z,16.00
2018-02-02T06:53:08.129Z,16.00
2018-02-02T06:54:08.119Z,16.00
2018-02-02T06:55:08.114Z,20.00
2018-02-02T06:56:08.124Z,16.00
2018-02-02T06:57:08.093Z,20.00
2018-02-02T06:58:08.091Z,20.00
2018-02-02T06:59:08.081Z,20.00
2018-02-02T07:00:08.072Z,24.00
2018-02-02T07:01:08.059Z,24.00
2018-02-02T07:02:08.057Z,24.00
2018-02-02T07:03:08.041Z,28.00
2018-02-02T07:04:08.033Z,28.00
2018-02-02T07:05:08.022Z,32.00
2018-02-02T07:06:08.019Z,32.00
2018-02-02T07:07:08.013Z,36.00
2018-02-02T07:08:08.031Z,44.00
2018-02-02T07:09:07.988Z,56.00
2018-02-02T07:10:07.979Z,64.00
2018-02-02T07:11:07.978Z,72.00
2018-02-02T07:12:07.991Z,84.00
2018-02-02T07:13:07.988Z,96.00
2018-02-02T07:14:07.946Z,108.00
2018-02-02T07:15:07.953Z,120.00
2018-02-02T07:16:07.929Z,128.00
2018-02-02T07:17:07.925Z,132.00
2018-02-02T07:18:07.916Z,144.00
2018-02-02T07:19:07.906Z,160.00
2018-02-02T07:20:07.931Z,172.00
2018-02-02T07:21:07.887Z,184.00
2018-02-02T07:22:07.886Z,196.00
2018-02-02T07:23:07.870Z,200.00
2018-02-02T07:24:07.865Z,208.00
2018-02-02T07:25:07.858Z,220.00
2018-02-02T07:26:07.845Z,240.00
2018-02-02T07:27:07.838Z,248.00
2018-02-02T07:28:07.829Z,264.00
2018-02-02T07:29:07.816Z,280.00
2018-02-02T07:30:16.486Z,304.00
2018-02-02T07:32:01.274Z,336.00
2018-02-02T07:33:01.185Z,352.00
2018-02-02T07:34:01.175Z,352.00
2018-02-02T07:35:01.211Z,344.00
2018-02-02T07:36:01.160Z,340.00
2018-02-02T07:37:09.839Z,336.00
2018-02-02T07:38:54.626Z,336.00
2018-02-02T07:39:54.526Z,304.00
2018-02-02T07:40:54.555Z,268.00
2018-02-02T07:41:54.526Z,244.00
2018-02-02T07:42:54.488Z,256.00
2018-02-02T07:43:54.478Z,256.00
2018-02-02T07:44:54.470Z,268.00
2018-02-02T07:45:54.460Z,276.00
2018-02-02T07:46:54.454Z,272.00
2018-02-02T07:47:54.445Z,288.00
2018-02-02T07:48:54.442Z,296.00
2018-02-02T07:49:54.427Z,288.00
2018-02-02T07:50:54.422Z,300.00
2018-02-02T07:51:54.422Z,304.00
2018-02-02T07:52:54.403Z,308.00
2018-02-02T07:53:54.431Z,304.00
2018-02-02T07:54:54.387Z,292.00
2018-02-02T07:55:54.375Z,308.00
2018-02-02T07:56:54.370Z,296.00
2018-02-02T07:57:54.359Z,296.00
2018-02-02T07:58:54.349Z,296.00
2018-02-02T07:59:54.339Z,268.00
2018-02-02T08:00:54.332Z,284.00
2018-02-02T08:01:54.327Z,284.00
2018-02-02T08:02:54.320Z,276.00
2018-02-02T08:03:54.310Z,284.00
2018-02-02T08:04:54.308Z,268.00
2018-02-02T08:05:54.293Z,264.00
2018-02-02T08:06:54.281Z,264.00
2018-02-02T08:07:54.272Z,256.00
2018-02-02T08:08:54.266Z,248.00
2018-02-02T08:09:54.254Z,236.00
2018-02-02T08:10:54.251Z,228.00
2018-02-02T08:11:54.238Z,216.00
2018-02-02T08:12:54.231Z,220.00
2018-02-02T08:13:54.257Z,224.00
2018-02-02T08:14:54.212Z,224.00
2018-02-02T08:15:54.206Z,232.00
2018-02-02T08:16:54.193Z,224.00
2018-02-02T08:17:54.187Z,220.00
2018-02-02T08:18:54.180Z,216.00
2018-02-02T08:19:54.178Z,220.00
2018-02-02T08:20:54.213Z,224.00
2018-02-02T08:21:54.152Z,220.00
2018-02-02T08:22:54.150Z,232.00
2018-02-02T08:23:54.135Z,228.00
2018-02-02T08:24:54.134Z,232.00
2018-02-02T08:25:54.119Z,220.00
2018-02-02T08:26:54.125Z,220.00
2018-02-02T08:27:54.102Z,224.00
2018-02-02T08:28:54.097Z,232.00
2018-02-02T08:29:54.084Z,212.00
2018-02-02T08:30:54.078Z,240.00
2018-02-02T08:31:54.070Z,236.00
2018-02-02T08:32:54.066Z,220.00
2018-02-02T08:33:54.049Z,236.00
2018-02-02T08:34:54.041Z,244.00
2018-02-02T08:35:54.040Z,240.00
2018-02-02T08:36:54.031Z,240.00
2018-02-02T08:37:54.017Z,248.00
2018-02-02T08:38:54.009Z,264.00
2018-02-02T08:39:54.000Z,280.00
2018-02-02T08:40:53.990Z,312.00
2018-02-02T08:41:53.984Z,332.00
2018-02-02T08:42:54.813Z,356.00
2018-02-02T08:43:53.970Z,384.00
2018-02-02T08:44:53.957Z,416.00
2018-02-02T08:45:53.961Z,420.00
2018-02-02T08:46:53.945Z,412.00
2018-02-02T08:47:53.929Z,412.00
2018-02-02T08:48:53.924Z,400.00
2018-02-02T08:49:53.918Z,364.00
2018-02-02T08:50:53.909Z,336.00
2018-02-02T08:51:53.899Z,316.00
2018-02-02T08:52:53.930Z,332.00
2018-02-02T08:53:53.878Z,340.00
2018-02-02T08:54:53.869Z,352.00
2018-02-02T08:55:53.863Z,364.00
2018-02-02T08:56:53.858Z,380.00
2018-02-02T08:57:53.846Z,388.00
2018-02-02T08:58:53.837Z,372.00
2018-02-02T08:59:53.833Z,372.00
2018-02-02T09:00:53.819Z,356.00
2018-02-02T09:01:53.810Z,344.00
2018-02-02T09:02:53.803Z,324.00
2018-02-02T09:03:53.799Z,304.00
2018-02-02T09:04:53.791Z,300.00
2018-02-02T09:05:53.776Z,312.00
2018-02-02T09:06:53.773Z,316.00
2018-02-02T09:07:53.761Z,304.00
2018-02-02T09:08:53.753Z,320.00
2018-02-02T09:09:53.743Z,332.00
2018-02-02T09:10:53.735Z,348.00
2018-02-02T09:11:53.733Z,380.00
2018-02-02T09:12:53.771Z,380.00
2018-02-02T09:13:53.738Z,388.00
2018-02-02T09:14:53.701Z,372.00
2018-02-02T09:15:53.694Z,376.00
2018-02-02T09:16:53.690Z,352.00
2018-02-02T09:17:53.677Z,360.00
2018-02-02T09:18:53.675Z,364.00
2018-02-02T09:19:53.658Z,356.00
2018-02-02T09:20:53.656Z,332.00
2018-02-02T09:21:53.642Z,332.00
2018-02-02T09:22:53.633Z,320.00
2018-02-02T09:23:53.627Z,312.00
2018-02-02T09:24:53.619Z,304.00
2018-02-02T09:25:53.607Z,304.00
2018-02-02T09:26:53.602Z,312.00
2018-02-02T09:27:53.596Z,340.00
2018-02-02T09:28:53.588Z,364.00
2018-02-02T09:29:53.575Z,380.00
2018-02-02T09:30:53.581Z,396.00
2018-02-02T09:31:53.560Z,376.00
2018-02-02T09:32:53.552Z,412.00
2018-02-02T09:33:53.542Z,412.00
2018-02-02T09:34:53.535Z,416.00
2018-02-02T09:35:53.530Z,440.00
2018-02-02T09:36:53.519Z,456.00
2018-02-02T09:37:53.510Z,460.00
2018-02-02T09:38:53.500Z,504.00
2018-02-02T09:39:53.495Z,520.00
2018-02-02T09:40:53.489Z,524.00
2018-02-02T09:41:53.476Z,540.00
2018-02-02T09:42:53.466Z,560.00
2018-02-02T09:43:53.543Z,564.00
2018-02-02T09:44:53.453Z,564.00
2018-02-02T09:45:53.441Z,560.00
2018-02-02T09:46:53.442Z,580.00
2018-02-02T09:47:53.433Z,620.00
2018-02-02T09:48:53.419Z,680.00
2018-02-02T09:49:53.407Z,748.00
2018-02-02T09:50:53.397Z,760.00
2018-02-02T09:51:53.390Z,840.00
2018-02-02T09:52:53.381Z,904.00
2018-02-02T09:53:53.379Z,932.00
2018-02-02T09:54:53.367Z,940.00
2018-02-02T09:55:53.359Z,976.00
2018-02-02T09:56:53.356Z,964.00
2018-02-02T09:57:53.339Z,1000.00
2018-02-02T09:58:53.331Z,912.00
2018-02-02T09:59:53.322Z,1036.00
2018-02-02T10:00:53.334Z,1064.00
2018-02-02T10:01:53.315Z,1120.00
2018-02-02T10:02:53.299Z,1132.00
2018-02-02T10:03:53.292Z,1120.00
2018-02-02T10:04:53.284Z,1172.00
2018-02-02T10:05:53.277Z,1136.00
2018-02-02T10:06:53.264Z,1012.00
2018-02-02T10:13:08.265Z,852.00
2018-02-02T10:14:08.211Z,852.00
2018-02-02T10:15:08.151Z,836.00
2018-02-02T10:16:08.191Z,788.00
2018-02-02T10:17:08.133Z,800.00
2018-02-02T10:18:08.126Z,764.00
2018-02-02T10:19:08.122Z,716.00
2018-02-02T10:20:08.136Z,732.00
2018-02-02T10:21:08.105Z,768.00
2018-02-02T10:22:08.091Z,780.00
2018-02-02T10:23:08.086Z,768.00
2018-02-02T10:24:16.933Z,740.00
2018-02-02T10:26:01.514Z,692.00
2018-02-02T10:27:01.445Z,676.00
2018-02-02T10:28:10.111Z,696.00
2018-02-02T10:29:54.910Z,672.00
2018-02-02T10:30:54.844Z,628.00
2018-02-02T10:31:54.809Z,584.00
2018-02-02T10:32:54.847Z,516.00
2018-02-02T10:33:54.908Z,472.00
2018-02-02T10:34:54.777Z,356.00
2018-02-02T10:35:54.766Z,392.00
2018-02-02T10:36:54.759Z,360.00
2018-02-02T10:37:54.752Z,336.00
2018-02-02T10:38:54.741Z,312.00
2018-02-02T10:39:54.732Z,320.00
2018-02-02T10:40:54.729Z,316.00
2018-02-02T10:41:54.721Z,336.00
2018-02-02T10:42:54.709Z,356.00
2018-02-02T10:43:54.702Z,372.00
2018-02-02T10:44:54.693Z,400.00
2018-02-02T10:45:54.687Z,400.00
2018-02-02T10:46:54.678Z,444.00
2018-02-02T10:47:54.667Z,444.00
2018-02-02T10:48:54.657Z,456.00
2018-02-02T10:49:54.651Z,484.00
2018-02-02T10:50:54.641Z,552.00
2018-02-02T10:51:54.633Z,592.00
2018-02-02T10:52:54.629Z,660.00
2018-02-02T10:53:54.618Z,696.00
2018-02-02T10:54:54.608Z,712.00
2018-02-02T10:55:54.598Z,764.00
2018-02-02T10:56:54.594Z,800.00
2018-02-02T10:57:54.581Z,800.00
2018-02-02T10:58:54.574Z,796.00
2018-02-02T10:59:54.569Z,792.00
2018-02-02T11:00:54.559Z,788.00
2018-02-02T11:01:54.550Z,816.00
2018-02-02T11:02:54.540Z,844.00
2018-02-02T11:03:54.532Z,884.00
2018-02-02T11:04:54.526Z,932.00
2018-02-02T11:05:54.516Z,928.00
2018-02-02T11:06:54.511Z,924.00
2018-02-02T11:07:54.502Z,932.00
2018-02-02T11:08:54.490Z,908.00
2018-02-02T11:09:54.483Z,912.00
2018-02-02T11:10:54.475Z,912.00
2018-02-02T11:11:54.467Z,912.00
2018-02-02T11:12:54.463Z,912.00
2018-02-02T11:13:54.453Z,844.00
2018-02-02T11:14:54.444Z,804.00
2018-02-02T11:15:54.434Z,788.00
2018-02-02T11:16:54.426Z,732.00
2018-02-02T11:17:54.418Z,780.00
2018-02-02T11:18:54.414Z,740.00
2018-02-02T11:19:54.406Z,764.00
2018-02-02T11:20:54.397Z,768.00
2018-02-02T11:21:54.388Z,732.00
2018-02-02T11:22:54.384Z,760.00
2018-02-02T11:23:54.375Z,756.00
2018-02-02T11:24:54.364Z,772.00
2018-02-02T11:25:54.356Z,816.00
2018-02-02T11:26:54.349Z,872.00
2018-02-02T11:27:54.339Z,920.00
2018-02-02T11:28:54.332Z,1000.00
2018-02-02T11:29:54.324Z,1084.00
2018-02-02T11:30:54.472Z,1120.00
2018-02-02T11:31:54.306Z,1108.00
2018-02-02T11:32:54.299Z,984.00
2018-02-02T11:33:54.322Z,948.00
2018-02-02T11:34:54.342Z,928.00
2018-02-02T11:35:54.277Z,940.00
2018-02-02T11:36:54.269Z,916.00
2018-02-02T11:37:54.274Z,928.00
2018-02-02T11:38:54.351Z,948.00
2018-02-02T11:39:54.245Z,996.00
2018-02-02T11:40:54.240Z,1064.00
2018-02-02T11:41:54.232Z,1124.00
2018-02-02T11:42:54.224Z,1180.00
2018-02-02T11:43:54.216Z,1184.00
2018-02-02T11:44:54.209Z,1176.00
2018-02-02T11:45:54.203Z,1072.00
2018-02-02T11:46:54.192Z,1068.00
2018-02-02T11:47:54.185Z,1020.00
2018-02-02T11:48:54.177Z,976.00
2018-02-02T11:49:54.173Z,912.00
2018-02-02T11:50:54.159Z,804.00
2018-02-02T11:51:54.153Z,820.00
2018-02-02T11:52:54.150Z,780.00
2018-02-02T11:53:54.138Z,820.00
2018-02-02T11:54:54.135Z,860.00
2018-02-02T11:55:54.121Z,896.00
2018-02-02T11:56:54.121Z,896.00
2018-02-02T11:57:54.112Z,900.00
2018-02-02T11:58:54.100Z,928.00
2018-02-02T11:59:54.090Z,848.00
2018-02-02T12:00:54.085Z,740.00
2018-02-02T12:01:54.076Z,724.00
2018-02-02T12:02:54.071Z,660.00
2018-02-02T12:03:54.061Z,692.00
2018-02-02T12:04:54.050Z,664.00
2018-02-02T12:05:54.046Z,684.00
2018-02-02T12:06:54.039Z,696.00
2018-02-02T12:07:54.033Z,700.00
2018-02-02T12:08:54.023Z,688.00
2018-02-02T12:09:54.017Z,744.00
2018-02-02T12:10:54.006Z,728.00
2018-02-02T12:11:53.999Z,716.00
2018-02-02T12:12:53.989Z,740.00
2018-02-02T12:13:53.985Z,736.00
2018-02-02T12:14:53.978Z,760.00
2018-02-02T12:15:53.965Z,784.00
2018-02-02T12:16:53.962Z,764.00
2018-02-02T12:17:53.951Z,776.00
2018-02-02T12:18:53.950Z,696.00
2018-02-02T12:19:53.939Z,660.00
2018-02-02T12:20:53.933Z,644.00
2018-02-02T12:21:53.993Z,616.00
2018-02-02T12:22:53.916Z,560.00
2018-02-02T12:23:53.915Z,544.00
2018-02-02T12:24:53.901Z,488.00
2018-02-02T12:25:53.889Z,512.00
2018-02-02T12:26:53.882Z,456.00
2018-02-02T12:27:53.871Z,412.00
2018-02-02T12:28:53.865Z,424.00
2018-02-02T12:29:53.860Z,404.00
2018-02-02T12:30:53.849Z,412.00
2018-02-02T12:31:53.842Z,440.00
2018-02-02T12:32:53.837Z,460.00
2018-02-02T12:33:53.828Z,476.00
2018-02-02T12:34:53.819Z,476.00
2018-02-02T12:35:53.808Z,476.00
2018-02-02T12:36:53.801Z,464.00
2018-02-02T12:37:53.793Z,420.00
2018-02-02T12:38:53.787Z,412.00
2018-02-02T12:39:53.779Z,396.00
2018-02-02T12:40:53.769Z,408.00
2018-02-02T12:41:53.761Z,424.00
2018-02-02T12:42:53.756Z,412.00
2018-02-02T12:43:53.743Z,396.00
2018-02-02T12:44:53.737Z,368.00
2018-02-02T12:45:53.730Z,364.00
2018-02-02T12:46:53.723Z,340.00
2018-02-02T12:47:53.712Z,328.00
2018-02-02T12:48:53.707Z,316.00
2018-02-02T12:50:02.418Z,312.00
2018-02-02T12:51:47.120Z,372.00
2018-02-02T12:52:47.124Z,412.00
2018-02-02T12:53:47.059Z,392.00
2018-02-02T12:54:47.054Z,388.00
2018-02-02T12:55:47.043Z,388.00
2018-02-02T12:56:47.037Z,392.00
2018-02-02T12:57:47.027Z,360.00
2018-02-02T12:58:47.034Z,364.00
2018-02-02T12:59:47.016Z,368.00
2018-02-02T13:00:47.003Z,380.00
2018-02-02T13:01:46.993Z,392.00
2018-02-02T13:02:47.005Z,392.00
2018-02-02T13:03:47.052Z,368.00
2018-02-02T13:04:46.971Z,376.00
2018-02-02T13:05:46.962Z,416.00
2018-02-02T13:06:46.972Z,432.00
2018-02-02T13:07:46.947Z,416.00
2018-02-02T13:08:46.942Z,380.00
2018-02-02T13:09:46.937Z,368.00
2018-02-02T13:10:46.926Z,352.00
2018-02-02T13:11:46.918Z,384.00
2018-02-02T13:12:46.944Z,404.00
2018-02-02T13:13:46.907Z,460.00
2018-02-02T13:14:46.893Z,488.00
2018-02-02T13:15:46.884Z,476.00
2018-02-02T13:16:46.878Z,460.00
2018-02-02T13:17:46.869Z,512.00
2018-02-02T13:18:46.866Z,532.00
2018-02-02T13:19:46.852Z,568.00
2018-02-02T13:20:46.846Z,608.00
2018-02-02T13:21:46.842Z,660.00
2018-02-02T13:22:46.830Z,712.00
2018-02-02T13:23:46.823Z,760.00
2018-02-02T13:24:46.819Z,764.00
2018-02-02T13:25:46.810Z,752.00
2018-02-02T13:26:46.798Z,712.00
2018-02-02T13:27:46.803Z,684.00
2018-02-02T13:28:46.788Z,704.00
2018-02-02T13:29:46.775Z,696.00
2018-02-02T13:30:46.769Z,716.00
2018-02-02T13:31:46.764Z,772.00
2018-02-02T13:32:46.753Z,816.00
2018-02-02T13:33:46.751Z,832.00
2018-02-02T13:34:46.737Z,824.00
2018-02-02T13:35:46.730Z,932.00
2018-02-02T13:36:46.724Z,964.00
2018-02-02T13:37:46.714Z,980.00
2018-02-02T13:38:46.740Z,964.00
2018-02-02T13:39:46.698Z,956.00
2018-02-02T13:40:46.689Z,924.00
2018-02-02T13:41:46.716Z,948.00
2018-02-02T13:42:46.675Z,992.00
2018-02-02T13:43:46.678Z,956.00
2018-02-02T13:44:46.661Z,916.00